Estación Meteorológica Peña el Pijo (Robertgarden) [ 07/20/18 16:37:54 CEST ]

Fecha Hora Presion(HPa) Temp (°C) Humedad % Rocio (°C) Viento ( m/s) Direccion Lluvia 1Hora(mm) Lluvia 24H(mm) LLuvia Total(mm)
2018-Jan-18 01:01:44 1013.700 -0.6 75 -4.5         62.16
2018-Jan-18 02:01:47 1013.200 -0.6 76 -4.3         62.16
2018-Jan-18 03:03:12 1013.100 -1.1 78 -4.5         62.16
2018-Jan-18 04:02:00 1012.600 -1.6 79 -4.8         62.16
2018-Jan-18 05:01:47 1012.400 -2.2 80 -5.2         62.16
2018-Jan-18 06:01:38 1012.400 -2.5 81 -5.3         62.16
2018-Jan-18 07:01:51 1012.500 -2.5 82 -5.2         62.16
2018-Jan-18 08:01:47 1012.600 -2.4 82 -5.1         62.16
2018-Jan-18 09:01:44 1012.900 -2.6 83 -5.1         62.16
2018-Jan-18 10:01:51 1013.300 2.3 85 0.0         62.16
2018-Jan-18 11:01:49 1013.300 6.8 75 2.7         62.16
2018-Jan-18 12:01:56 1012.800 10.3 63 3.5         62.16
2018-Jan-18 13:01:58 1011.400 11.5 58 3.5 2.1 SSW     62.16
2018-Jan-18 14:02:05 1010.200 14.5 51 4.5         62.16
2018-Jan-18 15:01:37 1009.200 14.6 47 3.4         62.16
2018-Jan-18 16:01:54 1009.200 13.1 53 3.7 0.9 ENE     62.16
2018-Jan-18 17:01:39 1009.500 11.5 57 3.2         62.16
2018-Jan-18 18:02:00 1009.600 9.3 62 2.4         62.16
2018-Jan-18 19:01:43 1009.800 6.4 67 0.7         62.16
2018-Jan-18 20:01:57 1009.600 4.9 72 0.3         62.16
2018-Jan-18 21:01:51 1009.800 4.1 75 0.0         62.16
2018-Jan-18 22:01:43 1009.100 3.2 77 -0.4         62.16
2018-Jan-18 23:01:47 1009.200 2.9 79 -0.4         62.16

Temperatura Máxima:14°    Temperatura Mínima:-2°
Presión Máxima:1013.700 Hpa    Presión Mínima:1009.100 Hpa


Volver